Johnstown, PA (15901)

10:53 PM EST on January 26, 2015 (GMT -0500)
Brownstown | Change Station
CLOSE
Current Station
Personal Weather Station
Location: Johnstown, PA
Elevation: 1516 ft
Nearby Weather Stations
Active Advisory: Winter Weather Advisory Active Notice: Public Information Statement

Elev 1516 ft 40.34 °N, 78.94 °W | Updated 0 second ago

Overcast
Overcast
21.6 °F
Feels Like 22 °F
N
0.0
Wind Variable Wind from East
Gusts 0.0 mph

Today
High -- | Low -- °F
--% Chance of Precip.
Yesterday
High -- | Low -- °F
Precip. -- in
7:30 AM 5:26 PM
Waxing Crescent, 50% visible
Pressure 29.70 in
Visibility 2.5 miles
Clouds Overcast 1200 ft
Windchill 22 °F
Dew Point 21 °F
Humidity 97%
Rainfall 0.00 in
Snow Depth Not available.
UV 0 out of 12
Pollen .10 out of 12
Air Quality Not available.
Flu Activity Not available.
SPECI KJST 270315Z AUTO 00000KT 2 1/2SM -SN BR OVC012 M07/M09 A2970 RMK AO2 P0000 T10721094

More Conditions Fewer Conditions

Pressure 29.70 in
Visibility 2.5 miles
Clouds Overcast 1200 ft
Windchill 22 °F
Dew Point 21 °F
Humidity 97%
Rainfall 0.00 in
Snow Depth Not available.
UV 0 out of 12
Pollen .10 out of 12
Air Quality Not available.
Flu Activity Not available.
SPECI KJST 270315Z AUTO 00000KT 2 1/2SM -SN BR OVC012 M07/M09 A2970 RMK AO2 P0000 T10721094

More Conditions Fewer Conditions

Nowcast | as of 8:58 PM EST on January 26, 2015

Bands of snow...some heavy...will be across much of the region through 11 PM. The heaviest snow will be mainly west of a LaPorte...Harrisburg...Gettysburg line. The combination of cold temperatures and the heavy rate of snow accumulation will likely result in poor travel conditions. Persons traveling this evening should allow extra travel time and use caution.

×

10-Day Weather Forecast

Almanac

Astronomy

Jan. 26, 2015 Rise Set
Actual Time
Civil Twilight
Nautical Twilight
Astronomical Twilight
Moon
Length of Visible Light
Length of Day
Tomorrow will be .
, % of the Moon is Illuminated

Today's Extremes

State Highs State Lows

Community

WunderPhotos

Upload Photos

1,790,504 photos uploaded!

WunderBlogs® & News

Nearby

Air Quality

  Air Quality AQ Index Pollutant
Not available.

Snow Depth

Station Depth Elevation

Earthquake Activity

City Distance Mag. Time & Date
Minimum magnitude displayed is 2.5.

Coastal Water Temperatures

Place Temperature

Nearby Weather Stations